ADDS METAR Data INFO
IDs: Format: Raw Decoded Include TAF

Data at: 0048 UTC 22 Oct 2017

K33V 220015Z AUTO 22010KT 10SM SCT046 M01/M08 A3021 RMK AO1
K33V 212355Z AUTO 22011G15KT 10SM SCT046 M01/M08 A3020 RMK AO1
K33V 212335Z AUTO 23012G17KT 10SM SCT048 M01/M08 A3019 RMK AO1
K33V 212315Z AUTO 22014KT 10SM SCT038 OVC048 M01/M08 A3018 RMK AO1
K33V 212255Z AUTO 23011G15KT 10SM BKN042 OVC050 M01/M08 A3018 RMK AO1
K33V 212235Z AUTO 22009KT 10SM SCT031 SCT043 BKN049 M01/M08 A3018 RMK AO1
K33V 212215Z AUTO 24011G20KT 10SM SCT036 BKN043 OVC060 00/M07 A3017 RMK AO1
K33V 212155Z AUTO 23012G16KT 10SM BKN044 BKN049 OVC055 00/M07 A3016 RMK AO1
K33V 212135Z AUTO 25011G17KT 10SM BKN041 OVC047 00/M08 A3015 RMK AO1
K33V 212115Z AUTO 23011G14KT 10SM BKN044 BKN050 OVC070 00/M08 A3015 RMK AO1
K33V 212055Z AUTO 24007G11KT 10SM SCT048 SCT060 BKN070 00/M09 A3014 RMK AO1
K33V 212035Z AUTO 24006KT 10SM SCT014 SCT027 SCT040 00/M08 A3014 RMK AO1
K33V 212015Z AUTO 24012KT 10SM SCT027 SCT040 M01/M07 A3014 RMK AO1
K33V 211955Z AUTO 25013G16KT 10SM SCT042 SCT050 M00/M07 A3014 RMK AO1
K33V 211935Z AUTO 26010G16KT 10SM SCT043 SCT050 M01/M08 A3013 RMK AO1
K33V 211915Z AUTO 25012G18KT 10SM SCT035 SCT043 M00/M08 A3013 RMK AO1
K33V 211855Z AUTO 24015KT 10SM SCT038 SCT044 BKN049 M01/M08 A3013 RMK AO1
K33V 211835Z AUTO 26015G21KT 10SM SCT037 SCT047 SCT060 M00/M08 A3013 RMK AO1
K33V 211815Z AUTO 24015G21KT 10SM SCT042 SCT050 M00/M08 A3013 RMK AO1
K33V 211755Z AUTO 24014G19KT 10SM SCT048 M01/M08 A3012 RMK AO1
K33V 211735Z AUTO 25014G18KT 10SM SCT033 M01/M09 A3012 RMK AO1
K33V 211715Z AUTO 25009KT 10SM CLR M01/M08 A3011 RMK AO1
K33V 211655Z AUTO 25011G15KT 10SM SCT042 SCT048 M02/M08 A3011 RMK AO1
K33V 211635Z AUTO 26012G20KT 10SM CLR M01/M08 A3010 RMK AO1
K33V 211615Z AUTO 26014G19KT 10SM CLR M01/M08 A3008 RMK AO1
K33V 211555Z AUTO 24015G20KT 10SM CLR M02/M07 A3007 RMK AO1
K33V 211535Z AUTO 25013G18KT 10SM SCT035 M02/M08 A3007 RMK AO1
K33V 211515Z AUTO 25013G20KT 10SM SCT024 BKN033 BKN042 M03/M08 A3006 RMK AO1
K33V 211455Z AUTO 24011G16KT 10SM BKN024 OVC033 M03/M07 A3005 RMK AO1
K33V 211435Z AUTO 24011KT 7SM BKN024 BKN031 OVC037 M04/M08 A3005 RMK AO1
K33V 211415Z AUTO 25008KT 10SM BKN033 OVC042 M04/M08 A3004 RMK AO1
K33V 211355Z AUTO 25011KT 10SM SCT030 BKN039 BKN048 M05/M09 A3003 RMK AO1
K33V 211335Z AUTO 00000KT 10SM SCT032 M05/M09 A3002 RMK AO1
K33V 211315Z AUTO 22011KT 10SM CLR M06/M09 A3001 RMK AO1
K33V 211255Z AUTO 23009KT 10SM CLR M06/M09 A2998 RMK AO1
K33V 211235Z AUTO 24014KT 10SM CLR M06/M09 A2998 RMK AO1
K33V 211215Z AUTO 24015G20KT 10SM CLR M06/M09 A2997 RMK AO1
K33V 211155Z AUTO 25013KT 10SM CLR M06/M10 A2997 RMK AO1
K33V 211135Z AUTO 24012KT 10SM CLR M05/M09 A2997 RMK AO1
K33V 211115Z AUTO 25013KT 10SM CLR M05/M10 A2996 RMK AO1
K33V 211055Z AUTO 27013KT 10SM CLR M05/M10 A2996 RMK AO1
K33V 211035Z AUTO 26010KT 10SM CLR M05/M09 A2994 RMK AO1
K33V 211015Z AUTO 26012KT 10SM CLR M04/M09 A2994 RMK AO1
K33V 210955Z AUTO 25014G19KT 10SM CLR M04/M08 A2993 RMK AO1
K33V 210935Z AUTO 26010KT 10SM CLR M04/M08 A2994 RMK AO1
K33V 210915Z AUTO 25008KT 10SM SCT029 M03/M07 A2994 RMK AO1
K33V 210855Z AUTO 24006KT 10SM SCT029 M03/M06 A2994 RMK AO1
K33V 210835Z AUTO 27006KT 10SM SCT030 M03/M06 A2993 RMK AO1
K33V 210815Z AUTO 26005KT 10SM BKN030 M03/M07 A2994 RMK AO1
K33V 210755Z AUTO 26004KT 10SM OVC030 M01/M05 A2994 RMK AO1
K33V 210735Z AUTO 25004KT 10SM BKN028 OVC070 M03/M06 A2993 RMK AO1
K33V 210715Z AUTO 28005KT 10SM BKN026 BKN032 OVC110 M01/M05 A2992 RMK AO1
K33V 210655Z AUTO 30006KT 10SM BKN026 BKN044 OVC060 M01/M04 A2992 RMK AO1
K33V 210635Z AUTO 32012G15KT 10SM SCT011 BKN023 OVC028 M01/M04 A2991 RMK AO1
K33V 210615Z AUTO 33013KT 4SM SCT011 BKN018 OVC039 M01/M04 A2990 RMK AO1
K33V 210555Z AUTO 35017KT 10SM SCT022 BKN027 OVC039 M01/M03 A2989 RMK AO1
K33V 210535Z AUTO 35013KT 10SM BKN022 OVC027 M01/M03 A2986 RMK AO1
K33V 210515Z AUTO 35015KT 10SM SCT005 SCT014 OVC030 M01/M03 A2986 RMK AO1
K33V 210455Z AUTO 35022G26KT 2SM BKN005 BKN008 OVC014 M01/M03 A2983 RMK AO1
K33V 210435Z AUTO 35018KT 3/4SM OVC005 M01/M03 A2982 RMK AO1
K33V 210415Z AUTO 34017G25KT 1SM OVC003 M01/M03 A2982 RMK AO1
K33V 210355Z AUTO 34018G26KT 1/2SM OVC003 00/M01 A2981 RMK AO1
K33V 210335Z AUTO 34021G26KT 1/2SM OVC005 01/M00 A2980 RMK AO1
K33V 210315Z AUTO 34019G24KT 10SM SCT017 BKN030 OVC075 01/M02 A2979 RMK AO1
K33V 210255Z AUTO 36021G25KT 10SM SCT049 BKN065 OVC080 03/M01 A2977 RMK AO1
K33V 210235Z AUTO 33017G22KT 10SM SCT050 BKN070 OVC080 05/M01 A2976 RMK AO1
K33V 210215Z AUTO 34020G25KT 10SM SCT070 OVC080 06/M02 A2975 RMK AO1
K33V 210155Z AUTO 21007KT 10SM OVC090 10/M06 A2972 RMK AO1
K33V 210135Z AUTO 18007KT 10SM OVC090 10/M06 A2972 RMK AO1
K33V 210115Z AUTO 19007KT 10SM BKN100 OVC120 10/M07 A2972 RMK AO1
K33V 210055Z AUTO 20009KT 10SM BKN110 11/M06 A2971 RMK AO1
K33V 210035Z AUTO 19008KT 10SM SCT080 SCT100 11/M06 A2972 RMK AO1
K33V 210015Z AUTO 22010KT 10SM SCT100 12/M05 A2971 RMK AO1
K33V 202355Z AUTO 23014G22KT 10SM SCT100 12/M06 A2972 RMK AO1
K33V 202335Z AUTO 24010KT 10SM SCT090 12/M05 A2971 RMK AO1
K33V 202315Z AUTO 24016G25KT 10SM SCT090 14/M06 A2971 RMK AO1
K33V 202255Z AUTO 25021G26KT 10SM BKN090 15/M07 A2971 RMK AO1
K33V 202235Z AUTO 22018G24KT 10SM SCT090 SCT110 14/M07 A2972 RMK AO1
K33V 202215Z AUTO 22017G26KT 10SM SCT090 SCT110 14/M08 A2973 RMK AO1
K33V 202155Z AUTO 22011G19KT 10SM BKN080 14/M05 A2973 RMK AO1
K33V 202135Z AUTO 20018G23KT 10SM SCT090 BKN120 15/M06 A2975 RMK AO1
K33V 202115Z AUTO 22020G26KT 10SM SCT090 BKN120 16/M06 A2975 RMK AO1
K33V 202055Z AUTO 25016G27KT 10SM BKN090 BKN110 14/M06 A2975 RMK AO1
K33V 202035Z AUTO 25017G28KT 10SM SCT080 SCT100 15/M05 A2975 RMK AO1
K33V 202015Z AUTO 24021G27KT 10SM SCT075 15/M05 A2975 RMK AO1
K33V 201955Z AUTO 24017G25KT 10SM SCT085 SCT120 15/M03 A2976 RMK AO1
K33V 201935Z AUTO 23019G24KT 10SM SCT085 SCT120 15/M04 A2977 RMK AO1
K33V 201915Z AUTO 23016G29KT 10SM SCT065 BKN085 15/M04 A2978 RMK AO1
K33V 201855Z AUTO 21017G24KT 10SM BKN065 BKN075 15/M03 A2979 RMK AO1
K33V 201835Z AUTO 20014G21KT 10SM SCT065 BKN075 15/M03 A2979 RMK AO1
K33V 201815Z AUTO 19016G23KT 10SM SCT065 SCT075 15/M03 A2980 RMK AO1
K33V 201755Z AUTO 21018G25KT 10SM SCT075 15/M03 A2981 RMK AO1
K33V 201735Z AUTO 20014G23KT 10SM SCT065 14/M03 A2982 RMK AO1
K33V 201715Z AUTO 19014G20KT 10SM SCT065 14/M02 A2982 RMK AO1
K33V 201655Z AUTO 19015G23KT 10SM SCT065 13/M01 A2985 RMK AO1
K33V 201635Z AUTO 19015G21KT 10SM CLR 12/M01 A2986 RMK AO1
K33V 201615Z AUTO 19016G22KT 10SM CLR 12/M00 A2988 RMK AO1
K33V 201555Z AUTO 19009KT 10SM SCT060 SCT070 SCT100 10/M00 A2990 RMK AO1
K33V 201535Z AUTO 20010G16KT 10SM SCT050 BKN070 OVC100 10/M01 A2990 RMK AO1
K33V 201515Z AUTO 19009G14KT 10SM SCT050 SCT065 BKN100 08/M01 A2991 RMK AO1
K33V 201455Z AUTO 15005KT 10SM SCT100 07/M01 A2992 RMK AO1
K33V 201435Z AUTO 17005KT 10SM SCT055 04/M02 A2992 RMK AO1
K33V 201415Z AUTO 15007KT 10SM SCT055 03/M03 A2993 RMK AO1
K33V 201355Z AUTO 14006KT 10SM CLR 02/M03 A2993 RMK AO1
K33V 201335Z AUTO 12004KT 10SM SCT085 01/M04 A2993 RMK AO1
K33V 201315Z AUTO 13005KT 10SM CLR 01/M04 A2994 RMK AO1
K33V 201255Z AUTO 14006KT 10SM CLR 00/M04 A2995 RMK AO1